createdAt,value
2022-10-19T00:01:19.038Z,3.52
2022-10-19T00:06:27.811Z,3.27
2022-10-19T00:09:01.035Z,3.18
2022-10-19T00:11:28.880Z,2.96
2022-10-19T00:13:56.969Z,3.04
2022-10-19T00:16:29.319Z,3.04
2022-10-19T00:19:01.806Z,2.96
2022-10-19T00:21:28.940Z,2.86
2022-10-19T00:23:55.703Z,2.94
2022-10-19T00:26:22.463Z,2.93
2022-10-19T00:28:49.320Z,2.99
2022-10-19T00:31:18.042Z,2.74
2022-10-19T00:33:47.042Z,2.50
2022-10-19T00:36:19.961Z,2.81
2022-10-19T00:38:46.743Z,2.62
2022-10-19T00:41:13.644Z,2.54
2022-10-19T00:44:04.972Z,2.96
2022-10-19T00:46:34.070Z,2.92
2022-10-19T00:49:07.100Z,2.56
2022-10-19T00:51:39.374Z,2.82
2022-10-19T00:54:07.785Z,2.94
2022-10-19T00:56:36.088Z,2.71
2022-10-19T00:59:04.699Z,2.77
2022-10-19T01:01:32.970Z,2.64
2022-10-19T01:04:00.348Z,2.68
2022-10-19T01:06:27.593Z,2.71
2022-10-19T01:08:54.333Z,2.70
2022-10-19T01:11:23.852Z,2.71
2022-10-19T01:14:10.652Z,2.70
2022-10-19T01:16:51.927Z,2.46
2022-10-19T01:19:49.604Z,2.63
2022-10-19T01:22:28.197Z,2.70
2022-10-19T01:25:13.370Z,2.59
2022-10-19T01:28:03.279Z,2.70
2022-10-19T01:30:48.267Z,2.82
2022-10-19T01:33:23.472Z,2.81
2022-10-19T01:35:56.750Z,2.85
2022-10-19T01:38:36.189Z,2.51
2022-10-19T01:41:05.671Z,2.65
2022-10-19T01:43:58.213Z,2.67
2022-10-19T01:46:36.416Z,2.50
2022-10-19T01:49:32.100Z,2.66
2022-10-19T01:52:13.410Z,2.45
2022-10-19T01:54:44.362Z,2.30
2022-10-19T01:57:14.166Z,2.31
2022-10-19T01:59:42.328Z,2.34
2022-10-19T02:02:12.055Z,2.37
2022-10-19T02:04:39.997Z,2.61
2022-10-19T02:07:08.463Z,2.50
2022-10-19T02:09:35.528Z,2.21
2022-10-19T02:12:08.526Z,2.42
2022-10-19T02:14:39.761Z,2.29
2022-10-19T02:17:10.350Z,2.29
2022-10-19T02:19:37.221Z,2.11
2022-10-19T02:22:04.411Z,2.20
2022-10-19T02:24:31.336Z,2.24
2022-10-19T02:26:58.658Z,2.04
2022-10-19T02:29:25.260Z,1.96
2022-10-19T02:31:51.906Z,2.19
2022-10-19T02:34:18.727Z,2.35
2022-10-19T02:36:45.427Z,2.23
2022-10-19T02:39:12.109Z,2.23
2022-10-19T02:41:38.662Z,2.38
2022-10-19T02:44:18.611Z,2.34
2022-10-19T02:46:50.693Z,2.29
2022-10-19T02:49:18.248Z,2.16
2022-10-19T02:52:00.568Z,2.41
2022-10-19T02:54:28.264Z,2.45
2022-10-19T02:56:55.702Z,2.36
2022-10-19T02:59:22.913Z,2.53
2022-10-19T03:01:49.757Z,2.55
2022-10-19T03:04:16.683Z,2.62
2022-10-19T03:06:43.564Z,2.56
2022-10-19T03:09:10.519Z,2.43
2022-10-19T03:11:37.097Z,2.48
2022-10-19T03:14:03.763Z,2.75
2022-10-19T03:16:30.456Z,3.10
2022-10-19T03:18:57.038Z,2.70
2022-10-19T03:21:23.696Z,2.70
2022-10-19T03:23:50.295Z,2.38
2022-10-19T03:26:17.904Z,2.63
2022-10-19T03:28:44.678Z,2.68
2022-10-19T03:31:11.527Z,2.58
2022-10-19T03:33:38.124Z,2.66
2022-10-19T03:36:22.046Z,2.76
2022-10-19T03:38:53.363Z,2.42
2022-10-19T03:41:21.579Z,2.88
2022-10-19T03:43:48.451Z,2.92
2022-10-19T03:46:15.272Z,3.04
2022-10-19T03:48:42.282Z,2.87
2022-10-19T03:51:11.607Z,3.00
2022-10-19T03:53:38.265Z,2.76
2022-10-19T03:56:18.718Z,2.98
2022-10-19T03:58:47.194Z,3.12
2022-10-19T04:01:19.767Z,3.04
2022-10-19T04:03:46.875Z,2.90
2022-10-19T04:06:19.598Z,3.15
2022-10-19T04:08:49.981Z,3.02
2022-10-19T04:11:19.058Z,3.34
2022-10-19T04:13:51.917Z,3.09
2022-10-19T04:16:19.480Z,2.91
2022-10-19T04:18:46.739Z,2.87
2022-10-19T04:21:24.409Z,2.83
2022-10-19T04:23:52.564Z,2.86
2022-10-19T04:26:19.972Z,2.69
2022-10-19T04:28:46.979Z,2.69
2022-10-19T04:31:13.684Z,2.45
2022-10-19T04:33:41.140Z,2.76
2022-10-19T04:36:10.315Z,2.88
2022-10-19T04:38:37.983Z,2.94
2022-10-19T04:41:05.785Z,2.93
2022-10-19T04:43:32.782Z,2.94
2022-10-19T04:46:07.735Z,2.96
2022-10-19T04:48:35.660Z,3.02
2022-10-19T04:51:02.766Z,3.29
2022-10-19T04:53:29.397Z,3.22
2022-10-19T04:55:56.130Z,3.05
2022-10-19T04:58:22.794Z,3.08
2022-10-19T05:00:49.649Z,3.12
2022-10-19T05:03:16.823Z,3.48
2022-10-19T05:05:43.779Z,3.67
2022-10-19T05:08:10.951Z,3.53
2022-10-19T05:10:38.284Z,3.56
2022-10-19T05:13:05.512Z,3.41
2022-10-19T05:15:32.207Z,3.36
2022-10-19T05:17:58.983Z,3.28
2022-10-19T05:20:25.782Z,3.55
2022-10-19T05:22:52.487Z,3.54
2022-10-19T05:25:19.219Z,3.60
2022-10-19T05:27:45.904Z,3.61
2022-10-19T05:30:14.409Z,3.70
2022-10-19T05:32:41.118Z,3.78
2022-10-19T05:35:08.132Z,3.85
2022-10-19T05:37:35.144Z,3.77
2022-10-19T05:40:02.021Z,3.76
2022-10-19T05:42:28.640Z,4.37
2022-10-19T05:44:55.232Z,4.41
2022-10-19T05:47:21.841Z,4.61
2022-10-19T05:49:48.463Z,5.09
2022-10-19T05:52:17.705Z,5.51
2022-10-19T05:54:44.432Z,5.81
2022-10-19T05:57:11.067Z,5.85
2022-10-19T05:59:37.738Z,5.70
2022-10-19T06:02:04.452Z,6.45
2022-10-19T06:04:31.082Z,6.95
2022-10-19T06:06:57.668Z,7.29
2022-10-19T06:09:24.378Z,7.65
2022-10-19T06:11:50.959Z,7.37
2022-10-19T06:14:17.592Z,7.37
2022-10-19T06:16:46.058Z,7.44
2022-10-19T06:19:12.895Z,7.49
2022-10-19T06:21:41.911Z,7.94
2022-10-19T06:24:13.116Z,8.51
2022-10-19T06:26:39.842Z,8.75
2022-10-19T06:29:06.559Z,9.17
2022-10-19T06:31:35.727Z,9.43
2022-10-19T06:34:02.975Z,9.74
2022-10-19T06:36:31.563Z,10.24
2022-10-19T06:39:00.030Z,10.43
2022-10-19T06:41:26.732Z,10.54
2022-10-19T06:43:54.968Z,10.64
2022-10-19T06:46:23.842Z,10.91
2022-10-19T06:48:55.073Z,10.91
2022-10-19T06:51:22.945Z,10.93
2022-10-19T06:53:54.201Z,10.90
2022-10-19T06:56:24.701Z,11.20
2022-10-19T06:58:51.815Z,11.49
2022-10-19T07:01:18.532Z,11.20
2022-10-19T07:03:45.275Z,11.62
2022-10-19T07:06:13.295Z,11.67
2022-10-19T07:08:41.991Z,12.09
2022-10-19T07:11:11.897Z,12.17
2022-10-19T07:13:38.767Z,12.34
2022-10-19T07:16:15.837Z,12.52
2022-10-19T07:18:46.732Z,12.27
2022-10-19T07:21:16.338Z,12.80
2022-10-19T07:23:45.076Z,12.74
2022-10-19T07:26:17.279Z,12.99
2022-10-19T07:28:46.452Z,13.38
2022-10-19T07:31:15.382Z,13.96
2022-10-19T07:33:42.000Z,13.96
2022-10-19T07:36:10.643Z,13.99
2022-10-19T07:38:37.648Z,14.23
2022-10-19T07:41:13.471Z,14.48
2022-10-19T07:43:41.299Z,14.58
2022-10-19T07:46:11.783Z,14.26
2022-10-19T07:48:38.513Z,14.46
2022-10-19T07:51:07.313Z,14.65
2022-10-19T07:53:35.171Z,14.89
2022-10-19T07:56:08.948Z,14.96
2022-10-19T07:58:36.607Z,14.83
2022-10-19T08:01:05.658Z,15.04
2022-10-19T08:06:20.815Z,14.81
2022-10-19T08:08:48.843Z,14.87
2022-10-19T08:11:21.148Z,14.71
2022-10-19T08:13:48.626Z,15.00
2022-10-19T08:16:40.443Z,15.07
2022-10-19T08:19:16.473Z,14.93
2022-10-19T08:21:45.874Z,14.96
2022-10-19T08:24:14.894Z,15.33
2022-10-19T08:26:42.222Z,15.52
2022-10-19T08:29:20.139Z,15.20
2022-10-19T08:31:48.865Z,15.31
2022-10-19T08:34:16.135Z,15.25
2022-10-19T08:36:42.909Z,15.33
2022-10-19T08:39:12.605Z,15.47
2022-10-19T08:42:13.153Z,15.90
2022-10-19T08:44:58.373Z,16.01
2022-10-19T08:47:55.581Z,16.00
2022-10-19T08:50:26.935Z,15.95
2022-10-19T08:53:16.625Z,15.60
2022-10-19T08:56:07.513Z,15.59
2022-10-19T08:59:00.300Z,15.75
2022-10-19T09:02:00.863Z,16.09
2022-10-19T09:04:36.142Z,16.27
2022-10-19T09:07:14.776Z,16.08
2022-10-19T09:09:51.265Z,16.32
2022-10-19T09:12:24.825Z,16.36
2022-10-19T09:15:00.421Z,16.33
2022-10-19T09:17:28.832Z,16.14
2022-10-19T09:19:55.983Z,15.95
2022-10-19T09:22:29.496Z,16.87
2022-10-19T09:25:08.699Z,17.20
2022-10-19T09:27:39.460Z,17.41
2022-10-19T09:30:28.034Z,17.07
2022-10-19T09:33:04.188Z,16.52
2022-10-19T09:35:37.298Z,16.21
2022-10-19T09:38:06.685Z,16.05
2022-10-19T09:40:35.290Z,15.57
2022-10-19T09:43:19.188Z,15.70
2022-10-19T09:46:24.481Z,15.90
2022-10-19T09:48:52.854Z,15.98
2022-10-19T09:51:21.305Z,16.43
2022-10-19T09:53:52.228Z,16.55
2022-10-19T09:56:20.097Z,16.92
2022-10-19T09:58:58.163Z,17.08
2022-10-19T10:01:43.819Z,17.08
2022-10-19T10:04:15.808Z,17.23
2022-10-19T10:06:44.924Z,17.55
2022-10-19T10:09:22.281Z,17.54
2022-10-19T10:11:50.909Z,17.76
2022-10-19T10:14:28.862Z,17.74
2022-10-19T10:16:57.470Z,17.81
2022-10-19T10:19:28.833Z,17.82
2022-10-19T10:21:57.918Z,17.90
2022-10-19T10:24:30.245Z,17.84
2022-10-19T10:27:06.169Z,17.93
2022-10-19T10:29:39.416Z,17.89
2022-10-19T10:32:18.362Z,18.06
2022-10-19T10:34:57.306Z,18.25
2022-10-19T10:37:42.662Z,18.37
2022-10-19T10:40:27.144Z,18.35
2022-10-19T10:42:56.965Z,18.40
2022-10-19T10:45:29.287Z,18.58
2022-10-19T10:47:57.987Z,18.31
2022-10-19T10:50:32.548Z,18.29
2022-10-19T10:53:26.653Z,18.27
2022-10-19T10:55:57.143Z,18.46
2022-10-19T10:58:36.061Z,18.51
2022-10-19T11:57:28.184Z,19.18
2022-10-19T12:00:15.030Z,18.99
2022-10-19T12:03:05.872Z,19.01
2022-10-19T12:05:51.104Z,18.97
2022-10-19T12:08:22.719Z,18.88
2022-10-19T12:11:07.518Z,18.86
2022-10-19T12:13:46.640Z,19.01
2022-10-19T12:16:14.847Z,19.26
2022-10-19T12:18:48.940Z,19.20
2022-10-19T12:21:27.221Z,19.02
2022-10-19T12:23:57.055Z,19.06
2022-10-19T12:26:24.881Z,18.71
2022-10-19T12:28:55.952Z,19.04
2022-10-19T12:31:25.012Z,18.90
2022-10-19T12:34:04.239Z,18.88
2022-10-19T12:36:55.003Z,18.77
2022-10-19T12:39:30.983Z,19.02
2022-10-19T12:42:30.506Z,19.16
2022-10-19T12:45:13.724Z,19.04
2022-10-19T12:47:40.955Z,19.08
2022-10-19T12:50:08.027Z,19.02
2022-10-19T12:52:36.761Z,19.05
2022-10-19T12:55:15.542Z,19.23
2022-10-19T12:58:06.548Z,19.26
2022-10-19T13:00:38.260Z,19.29
2022-10-19T13:03:14.422Z,19.12
2022-10-19T13:05:41.760Z,19.14
2022-10-19T13:08:12.107Z,19.06
2022-10-19T13:10:41.176Z,18.80
2022-10-19T13:13:46.027Z,19.26
2022-10-19T13:16:33.420Z,19.26
2022-10-19T13:19:00.142Z,19.39
2022-10-19T13:22:02.229Z,19.23
2022-10-19T13:24:37.256Z,19.09
2022-10-19T13:27:03.976Z,19.13
2022-10-19T13:29:41.305Z,19.17
2022-10-19T13:32:35.911Z,19.03
2022-10-19T13:35:23.249Z,18.98
2022-10-19T13:38:18.281Z,18.98
2022-10-19T13:40:47.877Z,18.90
2022-10-19T13:43:26.087Z,18.80
2022-10-19T13:45:58.979Z,18.46
2022-10-19T13:48:49.248Z,18.74
2022-10-19T13:51:44.848Z,18.77
2022-10-19T13:54:17.315Z,18.68
2022-10-19T13:57:16.969Z,18.73
2022-10-19T13:59:54.011Z,18.73
2022-10-19T14:03:19.288Z,18.70
2022-10-19T14:06:07.560Z,18.70
2022-10-19T14:08:58.775Z,18.63
2022-10-19T14:11:31.201Z,18.73
2022-10-19T14:14:09.109Z,18.64
2022-10-19T14:16:46.335Z,18.50
2022-10-19T14:19:14.899Z,18.81
2022-10-19T14:21:41.573Z,18.58
2022-10-19T14:24:28.325Z,18.70
2022-10-19T14:26:55.825Z,18.63
2022-10-19T14:29:22.489Z,18.45
2022-10-19T14:31:49.298Z,18.40
2022-10-19T14:34:16.458Z,18.09
2022-10-19T14:36:48.397Z,18.40
2022-10-19T14:39:57.115Z,18.33
2022-10-19T14:42:23.869Z,18.20
2022-10-19T14:44:50.697Z,17.89
2022-10-19T14:47:27.324Z,18.11
2022-10-19T14:49:53.983Z,17.98
2022-10-19T14:55:04.459Z,17.84
2022-10-19T14:57:35.258Z,17.74
2022-10-19T15:00:05.995Z,17.86
2022-10-19T15:02:45.013Z,17.83
2022-10-19T15:05:23.828Z,17.79
2022-10-19T15:07:51.227Z,17.70
2022-10-19T15:10:24.543Z,17.57
2022-10-19T15:12:52.884Z,17.50
2022-10-19T15:15:24.788Z,17.31
2022-10-19T15:17:54.421Z,17.44
2022-10-19T15:20:30.063Z,17.36
2022-10-19T15:22:58.639Z,17.28
2022-10-19T15:25:43.396Z,17.14
2022-10-19T15:28:23.880Z,16.76
2022-10-19T15:31:06.604Z,16.89
2022-10-19T15:33:43.395Z,16.77
2022-10-19T15:36:19.652Z,16.83
2022-10-19T15:39:11.398Z,16.80
2022-10-19T15:41:45.884Z,16.38
2022-10-19T15:44:48.426Z,16.51
2022-10-19T15:47:15.052Z,16.36
2022-10-19T15:49:41.591Z,16.34
2022-10-19T15:52:19.761Z,16.33
2022-10-19T15:54:50.883Z,16.31
2022-10-19T15:57:38.354Z,16.22
2022-10-19T16:00:17.001Z,16.09
2022-10-19T16:02:43.783Z,15.81
2022-10-19T16:05:10.971Z,15.77
2022-10-19T16:07:40.127Z,15.88
2022-10-19T16:10:09.084Z,15.66
2022-10-19T16:12:35.673Z,15.60
2022-10-19T16:15:02.346Z,15.33
2022-10-19T16:17:28.965Z,15.25
2022-10-19T16:19:55.577Z,15.27
2022-10-19T16:22:22.219Z,15.38
2022-10-19T16:24:48.953Z,14.74
2022-10-19T16:27:16.411Z,15.21
2022-10-19T16:29:44.397Z,15.22
2022-10-19T16:32:11.219Z,15.17
2022-10-19T16:34:38.106Z,14.92
2022-10-19T16:37:06.900Z,14.74
2022-10-19T16:39:34.113Z,14.83
2022-10-19T16:42:00.706Z,14.60
2022-10-19T16:44:27.358Z,14.52
2022-10-19T16:46:56.658Z,14.54
2022-10-19T16:49:23.337Z,14.64
2022-10-19T16:51:52.047Z,14.55
2022-10-19T16:54:21.676Z,14.25
2022-10-19T16:56:48.620Z,14.20
2022-10-19T16:59:18.128Z,14.37
2022-10-19T17:01:46.263Z,14.42
2022-10-19T17:04:14.487Z,14.31
2022-10-19T17:06:41.483Z,14.23
2022-10-19T17:11:55.902Z,14.14
2022-10-19T17:14:22.528Z,14.13
2022-10-19T17:16:49.250Z,13.95
2022-10-19T17:19:15.882Z,14.10
2022-10-19T17:21:42.775Z,13.89
2022-10-19T17:24:20.091Z,14.00
2022-10-19T17:26:49.367Z,13.75
2022-10-19T17:29:16.124Z,13.85
2022-10-19T17:31:43.327Z,13.96
2022-10-19T17:34:10.378Z,13.66
2022-10-19T17:39:19.287Z,13.56
2022-10-19T17:41:47.564Z,13.68
2022-10-19T17:44:15.175Z,13.62
2022-10-19T17:46:42.033Z,13.46
2022-10-19T17:49:09.892Z,13.54
2022-10-19T17:51:37.977Z,13.41
2022-10-19T17:54:12.914Z,13.40
2022-10-19T17:56:40.647Z,13.38
2022-10-19T17:59:09.108Z,13.18
2022-10-19T18:01:37.366Z,13.13
2022-10-19T18:04:04.554Z,12.99
2022-10-19T18:06:33.597Z,13.05
2022-10-19T18:09:02.208Z,12.85
2022-10-19T18:11:31.685Z,12.74
2022-10-19T18:14:00.891Z,12.60
2022-10-19T18:16:42.284Z,12.55
2022-10-19T18:19:09.308Z,12.51
2022-10-19T18:21:39.937Z,12.41
2022-10-19T18:24:12.674Z,12.23
2022-10-19T18:26:41.735Z,11.95
2022-10-19T18:29:26.904Z,12.28
2022-10-19T18:31:53.825Z,12.05
2022-10-19T18:34:24.319Z,11.80
2022-10-19T18:36:52.030Z,12.08
2022-10-19T18:39:19.108Z,12.22
2022-10-19T18:41:46.033Z,12.10
2022-10-19T18:44:13.623Z,11.84
2022-10-19T18:46:40.748Z,11.80
2022-10-19T18:49:08.666Z,11.80
2022-10-19T18:51:35.820Z,11.97
2022-10-19T18:54:02.529Z,11.92
2022-10-19T18:56:33.466Z,11.98
2022-10-19T18:59:00.089Z,11.73
2022-10-19T19:01:28.417Z,11.71
2022-10-19T19:03:58.710Z,11.45
2022-10-19T19:06:29.440Z,11.05
2022-10-19T19:08:57.577Z,10.54
2022-10-19T19:11:26.635Z,10.52
2022-10-19T19:13:55.904Z,10.14
2022-10-19T19:16:23.699Z,9.86
2022-10-19T19:18:50.845Z,9.69
2022-10-19T19:21:21.168Z,9.94
2022-10-19T19:23:48.581Z,10.09
2022-10-19T19:26:16.737Z,10.54
2022-10-19T19:28:46.418Z,10.59
2022-10-19T19:31:17.379Z,10.54
2022-10-19T19:33:45.503Z,10.42
2022-10-19T19:36:13.939Z,9.88
2022-10-19T19:38:40.551Z,9.67
2022-10-19T19:41:09.021Z,9.74
2022-10-19T19:43:37.097Z,10.19
2022-10-19T19:46:08.974Z,10.38
2022-10-19T19:48:37.267Z,10.39
2022-10-19T19:51:04.151Z,10.31
2022-10-19T19:53:30.959Z,10.42
2022-10-19T19:55:57.596Z,10.38
2022-10-19T19:58:24.252Z,10.33
2022-10-19T20:00:50.852Z,10.40
2022-10-19T20:03:17.463Z,10.28
2022-10-19T20:05:44.070Z,10.20
2022-10-19T20:08:11.282Z,10.11
2022-10-19T20:10:39.631Z,10.08
2022-10-19T20:13:06.302Z,10.10
2022-10-19T20:15:33.302Z,9.93
2022-10-19T20:17:59.918Z,9.89
2022-10-19T20:20:26.628Z,9.88
2022-10-19T20:22:53.223Z,9.81
2022-10-19T20:25:19.915Z,9.90
2022-10-19T20:27:46.489Z,9.89
2022-10-19T20:30:13.098Z,9.93
2022-10-19T20:32:39.805Z,9.84
2022-10-19T20:35:07.508Z,9.71
2022-10-19T20:37:34.198Z,9.93
2022-10-19T20:40:03.366Z,9.85
2022-10-19T20:42:34.245Z,9.91
2022-10-19T20:45:01.012Z,9.83
2022-10-19T20:47:27.656Z,9.85
2022-10-19T20:49:54.290Z,10.02
2022-10-19T20:52:21.016Z,9.79
2022-10-19T20:54:48.478Z,9.92
2022-10-19T20:57:15.120Z,10.05
2022-10-19T20:59:43.895Z,9.85
2022-10-19T21:02:11.007Z,9.98
2022-10-19T21:04:37.677Z,9.84
2022-10-19T21:07:05.144Z,9.91
2022-10-19T21:09:32.372Z,9.93
2022-10-19T21:11:59.180Z,9.68
2022-10-19T21:14:29.069Z,9.83
2022-10-19T21:16:56.852Z,9.81
2022-10-19T21:19:25.486Z,9.66
2022-10-19T21:21:57.766Z,9.77
2022-10-19T21:24:28.131Z,9.73
2022-10-19T21:26:54.742Z,9.63
2022-10-19T21:29:21.555Z,9.51
2022-10-19T21:31:50.135Z,9.67
2022-10-19T21:34:21.003Z,9.83
2022-10-19T21:36:48.008Z,9.73
2022-10-19T21:39:14.775Z,9.79
2022-10-19T21:41:41.405Z,9.79
2022-10-19T21:44:08.491Z,9.81
2022-10-19T21:46:35.237Z,9.82
2022-10-19T21:49:02.020Z,9.81
2022-10-19T21:51:42.009Z,9.86
2022-10-19T21:56:43.518Z,9.59
2022-10-19T21:59:10.195Z,9.66
2022-10-19T22:01:40.137Z,9.56
2022-10-19T22:04:12.177Z,9.60
2022-10-19T22:06:39.640Z,9.48
2022-10-19T22:09:08.466Z,9.55
2022-10-19T22:11:35.400Z,9.46
2022-10-19T22:14:03.134Z,9.28
2022-10-19T22:16:30.845Z,9.33
2022-10-19T22:18:58.052Z,9.26
2022-10-19T22:21:28.546Z,9.38
2022-10-19T22:24:01.659Z,9.34
2022-10-19T22:26:38.211Z,9.23
2022-10-19T22:29:06.951Z,9.18
2022-10-19T22:31:35.441Z,9.11
2022-10-19T22:34:05.221Z,9.06
2022-10-19T22:36:31.954Z,8.79
2022-10-19T22:38:58.531Z,8.91
2022-10-19T22:41:25.136Z,8.81
2022-10-19T22:43:51.822Z,8.75
2022-10-19T22:46:18.404Z,8.62
2022-10-19T22:48:45.036Z,8.54
2022-10-19T22:51:11.766Z,8.27
2022-10-19T22:53:38.374Z,8.22
2022-10-19T22:56:05.659Z,8.52
2022-10-19T22:58:32.367Z,8.45
2022-10-19T23:01:17.289Z,8.55
2022-10-19T23:03:44.205Z,8.40
2022-10-19T23:06:13.934Z,8.35
2022-10-19T23:08:41.002Z,8.15
2022-10-19T23:11:07.670Z,7.97
2022-10-19T23:13:34.310Z,7.65
2022-10-19T23:16:01.152Z,7.47
2022-10-19T23:18:31.759Z,7.32
2022-10-19T23:21:01.026Z,7.17
2022-10-19T23:23:28.756Z,7.44
2022-10-19T23:26:06.423Z,7.25
2022-10-19T23:28:34.828Z,7.31
2022-10-19T23:31:10.782Z,7.39
2022-10-19T23:33:37.517Z,7.23
2022-10-19T23:36:08.361Z,6.90
2022-10-19T23:38:36.870Z,6.73
2022-10-19T23:41:03.944Z,6.54
2022-10-19T23:43:30.646Z,6.47
2022-10-19T23:45:57.317Z,6.27
2022-10-19T23:48:24.215Z,6.23
2022-10-19T23:51:17.257Z,6.16
2022-10-19T23:53:45.540Z,6.15
2022-10-19T23:56:13.718Z,6.25
2022-10-19T23:58:40.872Z,6.36
